Time;durP1;ratioP1;P1;durP2;ratioP2;P2;SDS_P1;SDS_P2;PMS_P1;PMS_P2;Temp;Humidity;BMP_temperature;BMP_pressure;BME280_temperature;BME280_humidity;BME280_pressure;Samples;Min_cycle;Max_cycle;Signal;HPM_P1;HPM_P2
2023/09/26 00:00:59;;;;;;;17.52;10.98;;;563.30;2432.00;;;;;;5072447;28;20033;-71
2023/09/26 00:03:25;;;;;;;18.05;10.30;;;563.30;2432.00;;;;;;5072503;28;20028;-71
2023/09/26 00:05:54;;;;;;;22.80;11.82;;;563.30;2432.00;;;;;;5072507;28;20077;-70
2023/09/26 00:08:19;;;;;;;20.80;10.98;;;563.30;2432.00;;;;;;5076026;28;20017;-70
2023/09/26 00:10:48;;;;;;;19.75;10.27;;;563.30;2432.00;;;;;;5089538;28;20047;-72
2023/09/26 00:13:14;;;;;;;21.90;11.68;;;563.40;2432.00;;;;;;5076184;28;20025;-70
2023/09/26 00:15:40;;;;;;;17.65;10.85;;;563.40;2432.00;;;;;;5076050;28;20033;-70
2023/09/26 00:18:06;;;;;;;18.13;10.18;;;563.40;2432.00;;;;;;5076235;28;20031;-70
2023/09/26 00:20:35;;;;;;;16.42;10.20;;;563.30;2432.00;;;;;;5075875;28;20486;-71
2023/09/26 00:23:01;;;;;;;24.35;12.00;;;563.40;2432.00;;;;;;5076103;28;20025;-71
2023/09/26 00:25:26;;;;;;;17.95;10.45;;;563.40;2432.00;;;;;;5076006;28;20567;-71
2023/09/26 00:27:53;;;;;;;20.02;11.55;;;563.40;2432.00;;;;;;5075834;28;20056;-70
2023/09/26 00:30:23;;;;;;;21.20;11.10;;;563.30;2432.00;;;;;;5075646;28;20055;-71
2023/09/26 00:32:49;;;;;;;21.73;12.25;;;563.30;2432.00;;;;;;5075902;28;20473;-71
2023/09/26 00:35:15;;;;;;;24.15;11.55;;;563.30;2432.00;;;;;;5075555;28;20036;-70
2023/09/26 00:37:42;;;;;;;19.17;11.32;;;563.30;2432.00;;;;;;5075785;28;20525;-74
2023/09/26 00:40:10;;;;;;;25.75;11.32;;;563.20;2432.00;;;;;;5074224;28;20056;-70
2023/09/26 00:42:36;;;;;;;21.88;11.52;;;563.30;2432.00;;;;;;5075785;28;20020;-72
2023/09/26 00:45:02;;;;;;;20.30;11.65;;;563.30;2432.00;;;;;;5075751;28;20382;-73
2023/09/26 00:47:34;;;;;;;21.88;11.02;;;563.30;2432.00;;;;;;5075751;28;20473;-73
2023/09/26 00:50:02;;;;;;;19.10;11.90;;;563.30;2432.00;;;;;;5075513;28;20028;-73
2023/09/26 00:52:29;;;;;;;18.27;11.23;;;563.40;2432.00;;;;;;5075612;28;20021;-73
2023/09/26 00:54:54;;;;;;;22.77;11.65;;;563.40;2432.00;;;;;;5075506;28;20040;-72
2023/09/26 00:57:20;;;;;;;17.25;10.98;;;563.30;2432.00;;;;;;5075624;28;20025;-72
2023/09/26 00:59:46;;;;;;;22.23;11.63;;;563.30;2432.00;;;;;;5075446;28;20070;-73
2023/09/26 01:02:12;;;;;;;19.30;10.85;;;563.30;2432.00;;;;;;5075608;28;20029;-73
2023/09/26 01:04:38;;;;;;;17.50;11.20;;;563.30;2432.00;;;;;;5075219;28;20393;-73
2023/09/26 01:07:04;;;;;;;19.92;12.57;;;563.30;2432.00;;;;;;5075429;28;20024;-73
2023/09/26 01:09:29;;;;;;;20.40;12.55;;;563.30;2432.00;;;;;;5074904;28;20424;-73
2023/09/26 01:11:56;;;;;;;22.83;11.00;;;563.30;2432.00;;;;;;5075497;28;20086;-73
2023/09/26 01:14:22;;;;;;;16.48;11.35;;;563.30;2432.00;;;;;;5074821;28;20067;-73
2023/09/26 01:16:54;;;;;;;19.20;11.43;;;563.30;2432.00;;;;;;5075410;28;20111;-73
2023/09/26 01:19:20;;;;;;;22.23;10.85;;;563.30;2432.00;;;;;;5074976;28;20058;-73
2023/09/26 01:21:46;;;;;;;19.05;11.10;;;563.30;2432.00;;;;;;5075021;28;20024;-72
2023/09/26 01:24:12;;;;;;;17.73;11.93;;;563.30;2432.00;;;;;;5074804;28;20461;-73
2023/09/26 01:26:37;;;;;;;23.23;11.93;;;563.30;2432.00;;;;;;5075119;28;20363;-73
2023/09/26 01:29:07;;;;;;;21.80;12.20;;;563.20;2432.00;;;;;;5074664;28;20048;-73
2023/09/26 01:31:35;;;;;;;20.38;11.10;;;563.20;2432.00;;;;;;5074837;28;20358;-73
2023/09/26 01:34:02;;;;;;;25.15;10.70;;;563.20;2432.00;;;;;;5074524;28;20116;-75
2023/09/26 01:36:28;;;;;;;16.05;11.57;;;538.50;2073.60;;;;;;5074702;28;20065;-73
2023/09/26 01:38:54;;;;;;;18.83;11.77;;;538.50;2022.40;;;;;;5074120;28;20501;-73
2023/09/26 01:41:22;;;;;;;19.10;11.63;;;538.50;2124.80;;;;;;5074766;28;20031;-74
2023/09/26 01:43:47;;;;;;;16.23;11.52;;;538.50;2073.60;;;;;;5074418;28;20019;-72
2023/09/26 01:46:13;;;;;;;19.67;12.52;;;538.50;2073.60;;;;;;5074786;28;20028;-73
2023/09/26 01:48:39;;;;;;;18.35;11.40;;;538.50;2304.00;;;;;;5074454;28;20048;-73
2023/09/26 01:51:05;;;;;;;17.10;12.25;;;538.50;2406.40;;;;;;5074551;28;20575;-74
2023/09/26 01:53:31;;;;;;;20.58;12.15;;;538.50;2278.40;;;;;;5074069;28;20060;-73
2023/09/26 01:56:00;;;;;;;14.98;11.57;;;538.50;2201.60;;;;;;5074441;28;20052;-73
2023/09/26 01:58:26;;;;;;;22.65;12.43;;;538.50;2227.20;;;;;;5061189;28;20028;-73
2023/09/26 02:00:51;;;;;;;23.55;12.48;;;538.50;2252.80;;;;;;5074199;28;20493;-74
2023/09/26 02:03:17;;;;;;;21.23;12.25;;;538.50;2252.80;;;;;;5074577;28;20021;-73
2023/09/26 02:05:43;;;;;;;17.48;11.43;;;563.20;2201.60;;;;;;5074700;28;20024;-75
2023/09/26 02:08:09;;;;;;;16.70;12.02;;;563.20;2150.40;;;;;;5072876;28;20379;-75
2023/09/26 02:10:35;;;;;;;21.92;11.95;;;563.20;2073.60;;;;;;5074036;28;20025;-73
2023/09/26 02:13:00;;;;;;;21.10;11.93;;;538.50;2406.40;;;;;;5074081;28;20059;-71
2023/09/26 02:15:26;;;;;;;19.23;12.25;;;538.50;2099.20;;;;;;5073950;28;20037;-70
2023/09/26 02:17:52;;;;;;;18.13;12.23;;;538.50;2406.40;;;;;;5073922;28;20470;-72
2023/09/26 02:20:19;;;;;;;17.35;11.75;;;538.50;2406.40;;;;;;5073636;28;20042;-73
2023/09/26 02:22:50;;;;;;;19.15;12.50;;;538.50;2406.40;;;;;;5073830;28;20029;-73
2023/09/26 02:25:20;;;;;;;25.58;13.57;;;538.50;2406.40;;;;;;5073659;28;20021;-73
2023/09/26 02:27:47;;;;;;;17.00;11.93;;;563.20;2432.00;;;;;;5073850;28;20065;-71
2023/09/26 02:30:17;;;;;;;20.90;12.18;;;538.50;2406.40;;;;;;5072913;28;20026;-70
2023/09/26 02:32:42;;;;;;;19.88;12.85;;;538.50;2406.40;;;;;;5073536;28;20021;-70
2023/09/26 02:35:11;;;;;;;21.95;12.57;;;538.50;2406.40;;;;;;5073427;28;20032;-70
2023/09/26 02:37:38;;;;;;;22.73;12.70;;;538.50;2406.40;;;;;;5073388;28;20016;-71
2023/09/26 02:40:07;;;;;;;20.38;13.20;;;538.50;2406.40;;;;;;5073161;28;20074;-72
2023/09/26 02:42:33;;;;;;;18.85;11.75;;;538.50;2406.40;;;;;;5073701;28;20115;-72
2023/09/26 02:44:59;;;;;;;14.80;11.35;;;538.40;2406.40;;;;;;5073213;28;20029;-72
2023/09/26 02:47:25;;;;;;;14.80;12.10;;;538.30;2406.40;;;;;;5073412;28;20104;-72
2023/09/26 02:49:51;;;;;;;18.70;11.95;;;538.20;2406.40;;;;;;5073209;28;20036;-72
2023/09/26 02:52:18;;;;;;;17.17;11.80;;;538.20;2406.40;;;;;;5073315;28;20422;-71
2023/09/26 02:54:43;;;;;;;24.10;13.85;;;538.20;2406.40;;;;;;5073289;28;20098;-73
2023/09/26 02:57:09;;;;;;;30.02;11.88;;;538.20;2406.40;;;;;;5073266;28;20465;-72
2023/09/26 02:59:35;;;;;;;18.58;12.18;;;538.20;2406.40;;;;;;5073064;28;20037;-74
2023/09/26 03:02:01;;;;;;;25.17;12.85;;;538.20;2406.40;;;;;;5073263;28;20035;-71
2023/09/26 03:04:27;;;;;;;17.20;11.80;;;538.20;2406.40;;;;;;5073181;28;20031;-74
2023/09/26 03:06:52;;;;;;;16.02;12.55;;;538.20;2406.40;;;;;;5073395;28;20024;-74
2023/09/26 03:09:18;;;;;;;17.88;12.20;;;538.10;2406.40;;;;;;5072850;28;20485;-74
2023/09/26 03:11:44;;;;;;;19.88;12.25;;;538.20;2406.40;;;;;;5073218;28;20032;-76
2023/09/26 03:14:10;;;;;;;19.63;12.57;;;538.10;2406.40;;;;;;5072841;28;20033;-72
2023/09/26 03:16:36;;;;;;;25.05;13.18;;;538.10;2406.40;;;;;;5073217;28;20029;-72
2023/09/26 03:19:01;;;;;;;25.40;12.15;;;538.00;2406.40;;;;;;5073013;28;20025;-72
2023/09/26 03:21:27;;;;;;;21.98;13.00;;;538.00;2406.40;;;;;;5073020;28;20085;-73
2023/09/26 03:23:53;;;;;;;21.40;12.75;;;538.10;2406.40;;;;;;5072752;28;20033;-73
2023/09/26 03:26:18;;;;;;;19.92;12.80;;;538.00;2406.40;;;;;;5072958;28;20469;-73
2023/09/26 03:28:44;;;;;;;20.88;12.07;;;537.90;2406.40;;;;;;5072625;28;20024;-73
2023/09/26 03:31:10;;;;;;;20.42;14.02;;;537.70;2406.40;;;;;;5072868;28;20021;-73
2023/09/26 03:33:36;;;;;;;22.73;12.82;;;537.70;2406.40;;;;;;5072804;28;20025;-73
2023/09/26 03:36:03;;;;;;;23.50;13.95;;;537.60;2406.40;;;;;;5072899;28;20470;-73
2023/09/26 03:38:32;;;;;;;26.25;12.95;;;512.90;2380.80;;;;;;5072598;28;20108;-73
2023/09/26 03:41:05;;;;;;;19.60;13.63;;;512.80;2380.80;;;;;;5072743;28;20489;-74
2023/09/26 03:43:31;;;;;;;24.77;13.80;;;512.80;2380.80;;;;;;5075431;28;20031;-73
2023/09/26 03:46:07;;;;;;;22.13;12.43;;;512.80;2380.80;;;;;;5076844;28;20107;-73
2023/09/26 03:48:34;;;;;;;24.83;11.48;;;512.80;2380.80;;;;;;5076859;28;20025;-74
2023/09/26 03:51:10;;;;;;;23.45;12.63;;;512.80;2380.80;;;;;;5076773;28;20488;-73
2023/09/26 03:53:37;;;;;;;20.88;13.63;;;512.80;2380.80;;;;;;5063416;28;20493;-74
2023/09/26 03:56:03;;;;;;;17.20;12.32;;;512.80;2380.80;;;;;;5075305;28;20035;-73
2023/09/26 03:58:29;;;;;;;24.70;13.80;;;512.70;2380.80;;;;;;5076689;28;20487;-73
2023/09/26 04:00:54;;;;;;;22.60;13.25;;;512.70;2380.80;;;;;;5076309;28;20162;-73
2023/09/26 04:03:20;;;;;;;22.13;12.80;;;512.60;2380.80;;;;;;5076889;28;20055;-73
2023/09/26 04:05:48;;;;;;;21.27;13.48;;;512.60;2380.80;;;;;;5076450;28;20081;-73
2023/09/26 04:08:17;;;;;;;20.63;12.85;;;512.50;2380.80;;;;;;5063117;28;20070;-72
2023/09/26 04:10:43;;;;;;;21.98;13.15;;;512.50;2380.80;;;;;;5076256;28;20024;-73
2023/09/26 04:13:08;;;;;;;20.67;13.35;;;512.50;2380.80;;;;;;5076393;28;20035;-72
2023/09/26 04:15:38;;;;;;;19.17;12.23;;;512.50;2380.80;;;;;;5075885;28;20028;-73
2023/09/26 04:18:05;;;;;;;20.73;12.23;;;512.30;2380.80;;;;;;5076357;28;20013;-74
2023/09/26 04:20:31;;;;;;;18.05;13.13;;;512.30;2380.80;;;;;;5075729;28;20060;-73
2023/09/26 04:22:56;;;;;;;15.73;12.98;;;512.30;2380.80;;;;;;5075178;28;20059;-74
2023/09/26 04:25:22;;;;;;;17.58;12.88;;;512.30;2380.80;;;;;;5075139;28;20037;-73
2023/09/26 04:27:48;;;;;;;24.58;14.55;;;512.30;2380.80;;;;;;5076184;28;20078;-74
2023/09/26 04:30:13;;;;;;;24.40;12.35;;;512.30;2380.80;;;;;;5075513;28;20055;-73
2023/09/26 04:32:39;;;;;;;17.77;13.13;;;512.20;2380.80;;;;;;5076117;28;20021;-73
2023/09/26 04:35:05;;;;;;;22.75;13.13;;;512.30;2380.80;;;;;;5075641;28;20374;-73
2023/09/26 04:37:31;;;;;;;24.67;12.52;;;512.20;2380.80;;;;;;5075838;28;20461;-74
2023/09/26 04:39:57;;;;;;;23.00;12.93;;;512.20;2048.00;;;;;;5075314;28;20131;-72
2023/09/26 04:42:22;;;;;;;22.83;13.02;;;512.20;2380.80;;;;;;5066969;28;20067;-73
2023/09/26 04:44:48;;;;;;;24.98;14.32;;;512.10;2380.80;;;;;;5076437;28;20016;-73
2023/09/26 04:47:14;;;;;;;19.63;13.40;;;512.20;2380.80;;;;;;5073288;28;20020;-72
2023/09/26 04:49:39;;;;;;;18.85;12.40;;;512.20;2380.80;;;;;;5067480;28;20107;-73
2023/09/26 04:52:05;;;;;;;23.90;13.02;;;512.20;2380.80;;;;;;5071098;28;20043;-73
2023/09/26 04:54:31;;;;;;;19.65;12.57;;;512.20;2380.80;;;;;;5076495;28;20036;-73
2023/09/26 04:56:56;;;;;;;23.80;12.80;;;512.30;2380.80;;;;;;5067431;28;20023;-75
2023/09/26 04:59:22;;;;;;;18.45;13.18;;;512.20;2380.80;;;;;;5078741;28;20024;-73
2023/09/26 05:01:49;;;;;;;20.25;13.27;;;512.20;2380.80;;;;;;5069769;28;20025;-73
2023/09/26 05:04:15;;;;;;;22.50;11.93;;;512.20;2380.80;;;;;;5070124;28;20025;-73
2023/09/26 05:06:41;;;;;;;17.77;11.90;;;512.30;2380.80;;;;;;5075606;28;20024;-72
2023/09/26 05:09:07;;;;;;;22.98;13.32;;;512.40;2380.80;;;;;;5076642;28;20035;-75
2023/09/26 05:11:33;;;;;;;13.60;12.05;;;512.40;2380.80;;;;;;5083674;28;20052;-73
2023/09/26 05:13:59;;;;;;;21.63;11.40;;;512.50;2380.80;;;;;;5073497;28;20025;-73
2023/09/26 05:16:26;;;;;;;20.80;12.13;;;512.50;2380.80;;;;;;5076287;28;20409;-73
2023/09/26 05:18:52;;;;;;;21.42;12.45;;;512.60;2380.80;;;;;;5063375;28;20032;-74
2023/09/26 05:21:18;;;;;;;20.27;12.80;;;512.60;2380.80;;;;;;5082805;28;20024;-75
2023/09/26 05:23:43;;;;;;;21.33;13.68;;;512.60;2380.80;;;;;;5076781;28;21333;-74
2023/09/26 05:26:13;;;;;;;18.38;11.65;;;512.60;2380.80;;;;;;5078380;28;20067;-75
2023/09/26 05:28:40;;;;;;;19.35;12.23;;;512.80;2380.80;;;;;;5063234;28;20109;-73
2023/09/26 05:31:06;;;;;;;24.05;12.43;;;512.80;2380.80;;;;;;5067992;28;20029;-74
2023/09/26 05:33:32;;;;;;;20.02;12.55;;;512.80;2380.80;;;;;;5065496;28;20107;-75
2023/09/26 05:35:58;;;;;;;15.85;12.15;;;512.90;2380.80;;;;;;5068786;28;20120;-76
2023/09/26 05:38:25;;;;;;;21.23;12.43;;;512.90;2380.80;;;;;;5068073;28;20142;-76
2023/09/26 05:40:52;;;;;;;24.48;13.40;;;537.60;2406.40;;;;;;5081739;28;20143;-77
2023/09/26 05:43:17;;;;;;;17.88;12.68;;;537.60;2406.40;;;;;;5076263;28;20453;-76
2023/09/26 05:45:43;;;;;;;20.50;11.90;;;537.70;2406.40;;;;;;5070890;28;20062;-76
2023/09/26 05:48:09;;;;;;;22.30;12.23;;;537.70;2406.40;;;;;;5075237;28;20427;-76
2023/09/26 05:50:35;;;;;;;25.10;11.88;;;537.90;2406.40;;;;;;5079688;28;20111;-75
2023/09/26 05:53:00;;;;;;;19.33;11.60;;;537.80;2406.40;;;;;;5071406;28;20052;-76
2023/09/26 05:55:26;;;;;;;16.10;11.45;;;537.80;2406.40;;;;;;5067416;28;20028;-74
2023/09/26 05:57:52;;;;;;;17.05;10.70;;;538.00;2406.40;;;;;;5061889;28;20051;-75
2023/09/26 06:00:18;;;;;;;20.85;11.25;;;538.00;2406.40;;;;;;5078473;28;20031;-75
2023/09/26 06:02:44;;;;;;;14.27;9.38;;;538.20;2406.40;;;;;;5077237;28;20073;-77
2023/09/26 06:05:13;;;;;;;21.55;11.27;;;538.20;2406.40;;;;;;5068753;28;20028;-76
2023/09/26 06:07:41;;;;;;;16.98;11.00;;;538.30;2406.40;;;;;;5073568;28;20032;-75
2023/09/26 06:10:10;;;;;;;19.45;9.98;;;538.50;2406.40;;;;;;5063848;28;20032;-74
2023/09/26 06:12:37;;;;;;;19.02;10.48;;;538.50;2406.40;;;;;;5065164;28;20029;-75
2023/09/26 06:15:05;;;;;;;20.10;10.38;;;538.50;2406.40;;;;;;5071399;28;20385;-74
2023/09/26 06:17:31;;;;;;;16.70;10.32;;;563.20;2432.00;;;;;;5063370;28;20024;-76
2023/09/26 06:19:57;;;;;;;13.77;9.90;;;563.40;2432.00;;;;;;5076116;28;20042;-75
2023/09/26 06:22:23;;;;;;;14.88;9.88;;;563.60;2432.00;;;;;;5067626;28;20025;-75
2023/09/26 06:24:48;;;;;;;14.57;10.32;;;563.60;2432.00;;;;;;5071676;28;20027;-76
2023/09/26 06:27:14;;;;;;;23.48;10.27;;;564.00;2432.00;;;;;;5071606;28;20367;-75
2023/09/26 06:29:40;;;;;;;16.88;8.95;;;564.00;2432.00;;;;;;5065470;28;20025;-75
2023/09/26 06:32:06;;;;;;;14.48;9.23;;;588.80;2432.00;;;;;;5067432;28;20025;-75
2023/09/26 06:34:33;;;;;;;13.57;9.27;;;588.90;2432.00;;;;;;5070511;28;20043;-74
2023/09/26 06:36:59;;;;;;;19.30;9.45;;;589.10;2432.00;;;;;;5064723;28;20013;-75
2023/09/26 06:39:24;;;;;;;14.98;8.70;;;589.50;2432.00;;;;;;5073227;28;20047;-75
2023/09/26 06:41:50;;;;;;;17.08;9.23;;;589.60;2432.00;;;;;;5073930;28;20080;-72
2023/09/26 06:44:16;;;;;;;14.52;8.32;;;589.70;2432.00;;;;;;5058142;28;20404;-73
2023/09/26 06:46:41;;;;;;;17.10;8.73;;;614.50;2432.00;;;;;;5079481;28;20480;-73
2023/09/26 06:49:07;;;;;;;17.90;8.23;;;614.80;2432.00;;;;;;5068251;28;20024;-75
2023/09/26 06:51:33;;;;;;;16.65;8.70;;;615.00;2432.00;;;;;;5074161;28;20561;-75
2023/09/26 06:54:02;;;;;;;12.88;8.20;;;615.20;2432.00;;;;;;5076479;28;20484;-75
2023/09/26 06:56:28;;;;;;;15.38;8.15;;;640.00;2432.00;;;;;;5071307;28;20024;-72
2023/09/26 06:58:54;;;;;;;11.32;7.63;;;640.40;2432.00;;;;;;5061133;28;20092;-75
2023/09/26 07:01:20;;;;;;;15.32;7.50;;;;;;;;;;5076484;28;20052;-75
2023/09/26 07:03:47;;;;;;;13.45;7.25;;;;;;;;;;5070045;28;20028;-76
2023/09/26 07:06:14;;;;;;;15.63;7.45;;;;;;;;;;5071274;28;20095;-75
2023/09/26 07:08:41;;;;;;;15.32;7.97;;;640.60;2432.00;;;;;;5062487;28;20025;-75
2023/09/26 07:11:09;;;;;;;11.82;7.00;;;640.90;2432.00;;;;;;5073928;28;20052;-76
2023/09/26 07:13:35;;;;;;;13.40;6.95;;;665.70;2432.00;;;;;;5064502;28;20021;-76
2023/09/26 07:16:05;;;;;;;15.88;6.30;;;665.80;2432.00;;;;;;5063922;28;20032;-75
2023/09/26 07:18:32;;;;;;;13.32;6.45;;;666.20;2432.00;;;;;;5066351;28;20063;-76
2023/09/26 07:21:05;;;;;;;10.93;6.22;;;666.00;2432.00;;;;;;5071693;28;20503;-75
2023/09/26 07:23:37;;;;;;;12.85;5.93;;;665.70;2432.00;;;;;;5064216;28;20028;-75
2023/09/26 07:26:12;;;;;;;14.93;6.22;;;665.70;2432.00;;;;;;5067333;28;20021;-76
2023/09/26 07:28:39;;;;;;;15.18;6.82;;;665.90;2432.00;;;;;;5065300;28;20024;-75
2023/09/26 07:31:05;;;;;;;10.52;6.05;;;665.60;2432.00;;;;;;5069378;28;20385;-73
2023/09/26 07:33:32;;;;;;;15.18;6.82;;;665.70;2432.00;;;;;;5074570;28;20064;-72
2023/09/26 07:35:58;;;;;;;11.85;6.75;;;665.70;2432.00;;;;;;5075911;28;20297;-75
2023/09/26 07:38:23;;;;;;;18.95;7.03;;;666.00;2432.00;;;;;;5065893;28;20082;-76
2023/09/26 07:40:49;;;;;;;14.77;6.30;;;665.70;2432.00;;;;;;5078434;28;20055;-74
2023/09/26 07:43:15;;;;;;;20.58;7.72;;;640.70;2432.00;;;;;;5071465;28;20024;-74
2023/09/26 07:45:41;;;;;;;11.43;6.95;;;640.50;2432.00;;;;;;5071558;28;20556;-74
2023/09/26 07:48:07;;;;;;;13.90;7.35;;;640.50;2432.00;;;;;;5068790;28;20108;-74
2023/09/26 07:50:33;;;;;;;12.02;6.60;;;640.60;2432.00;;;;;;5074139;28;20028;-75
2023/09/26 07:53:01;;;;;;;13.07;6.93;;;640.60;2432.00;;;;;;5071326;28;20118;-76
2023/09/26 07:55:27;;;;;;;10.18;6.13;;;640.70;2432.00;;;;;;5077966;28;20033;-75
2023/09/26 07:57:53;;;;;;;13.10;6.68;;;640.90;2432.00;;;;;;5068204;28;20053;-75
2023/09/26 08:00:19;;;;;;;13.07;7.20;;;640.70;2432.00;;;;;;5074347;28;20055;-75
2023/09/26 08:02:45;;;;;;;15.15;7.75;;;665.70;2432.00;;;;;;5075482;28;20086;-75
2023/09/26 08:05:11;;;;;;;13.00;7.07;;;665.70;2432.00;;;;;;5063385;28;20470;-75
2023/09/26 08:07:43;;;;;;;13.05;7.47;;;665.70;2432.00;;;;;;5073088;28;20021;-75
2023/09/26 08:10:09;;;;;;;21.83;7.43;;;665.90;2432.00;;;;;;5080790;28;20020;-75
2023/09/26 08:12:39;;;;;;;13.98;7.18;;;666.00;2432.00;;;;;;5069001;28;20048;-75
2023/09/26 08:15:05;;;;;;;12.13;6.35;;;666.50;2432.00;;;;;;5076215;28;20071;-74
2023/09/26 08:17:31;;;;;;;19.02;7.45;;;691.30;2432.00;;;;;;5066765;28;20031;-74
2023/09/26 08:19:57;;;;;;;12.77;6.95;;;666.50;2432.00;;;;;;5074268;28;20035;-74
2023/09/26 08:22:23;;;;;;;9.45;6.43;;;691.30;2432.00;;;;;;5072608;28;20036;-74
2023/09/26 08:24:49;;;;;;;11.38;6.70;;;691.60;2432.00;;;;;;5065546;28;20036;-74
2023/09/26 08:27:16;;;;;;;20.30;7.07;;;692.10;2432.00;;;;;;5077670;28;20493;-74
2023/09/26 08:29:42;;;;;;;16.95;6.72;;;;;;;;;;5080393;28;20017;-74
2023/09/26 08:32:09;;;;;;;21.85;6.70;;;;;;;;;;5075242;28;20027;-73
2023/09/26 08:34:35;;;;;;;16.92;6.75;;;716.90;2432.00;;;;;;5076709;28;20119;-74
2023/09/26 08:37:01;;;;;;;15.43;6.45;;;716.90;2432.00;;;;;;5074879;28;20012;-74
2023/09/26 08:39:27;;;;;;;12.38;6.63;;;717.20;2432.00;;;;;;5078301;28;20060;-74
2023/09/26 08:41:53;;;;;;;18.85;5.75;;;716.90;2432.00;;;;;;5071959;28;20428;-74
2023/09/26 08:44:19;;;;;;;13.98;6.50;;;717.30;2432.00;;;;;;5072979;28;20037;-74
2023/09/26 08:46:45;;;;;;;14.63;6.43;;;717.50;2432.00;;;;;;5080746;28;20048;-73
2023/09/26 08:49:11;;;;;;;19.27;6.05;;;717.50;2380.80;;;;;;5073493;28;20024;-74
2023/09/26 08:51:37;;;;;;;16.52;7.03;;;717.60;2406.40;;;;;;5076023;28;20535;-74
2023/09/26 08:54:03;;;;;;;13.70;6.13;;;742.40;2432.00;;;;;;5071904;28;20024;-74
2023/09/26 08:56:33;;;;;;;10.70;7.18;;;742.70;2432.00;;;;;;5070540;28;20029;-74
2023/09/26 08:59:02;;;;;;;11.13;6.25;;;742.80;2432.00;;;;;;5066840;28;20017;-74
2023/09/26 09:01:28;;;;;;;11.95;7.30;;;742.80;2406.40;;;;;;5078061;28;20028;-74
2023/09/26 09:03:55;;;;;;;20.08;6.38;;;;;;;;;;5089154;28;20055;-73
2023/09/26 09:06:20;;;;;;;12.60;6.55;;;768.00;2355.20;;;;;;5075768;28;20031;-76
2023/09/26 09:08:46;;;;;;;13.68;6.05;;;768.10;2355.20;;;;;;5069199;28;20025;-74
2023/09/26 09:11:12;;;;;;;13.27;7.10;;;768.10;2304.00;;;;;;5074576;28;20082;-73
2023/09/26 09:13:39;;;;;;;7.95;5.35;;;768.10;2252.80;;;;;;5070378;28;20457;-74
2023/09/26 09:16:09;;;;;;;13.88;5.38;;;768.40;2048.00;;;;;;5071847;28;20040;-74
2023/09/26 09:18:35;;;;;;;12.15;6.13;;;768.40;1945.60;;;;;;5064876;28;20017;-74
2023/09/26 09:21:18;;;;;;;13.23;5.78;;;768.60;1920.00;;;;;;5077412;28;20035;-74
2023/09/26 09:23:48;;;;;;;10.27;5.30;;;768.60;1843.20;;;;;;5073405;28;20028;-74
2023/09/26 09:26:14;;;;;;;12.45;5.80;;;768.90;1843.20;;;;;;5071919;28;20093;-74
2023/09/26 09:28:39;;;;;;;12.55;6.05;;;793.60;1894.40;;;;;;5075695;28;20461;-74
2023/09/26 09:31:05;;;;;;;12.55;5.38;;;793.80;1868.80;;;;;;5069179;28;20020;-74
2023/09/26 09:33:31;;;;;;;11.88;4.88;;;793.60;1792.00;;;;;;5078356;28;20051;-74
2023/09/26 09:35:58;;;;;;;14.77;5.43;;;794.00;1766.40;;;;;;5069257;28;20043;-74
2023/09/26 09:38:24;;;;;;;11.32;5.40;;;794.30;1766.40;;;;;;5066677;28;20151;-74
2023/09/26 09:40:50;;;;;;;17.73;5.50;;;794.50;1740.80;;;;;;5079978;28;20048;-74
2023/09/26 09:43:16;;;;;;;16.92;5.25;;;794.40;1612.80;;;;;;5072464;28;20036;-74
2023/09/26 09:45:43;;;;;;;18.35;5.50;;;794.10;1638.40;;;;;;5063043;28;20371;-74
2023/09/26 09:48:10;;;;;;;10.70;5.28;;;794.10;1612.80;;;;;;5068450;28;20478;-74
2023/09/26 09:50:39;;;;;;;12.50;4.70;;;794.50;1612.80;;;;;;5076383;28;20061;-74
2023/09/26 09:53:05;;;;;;;13.25;4.65;;;794.50;1561.60;;;;;;5062917;28;20063;-74
2023/09/26 09:55:39;;;;;;;14.52;4.88;;;819.30;1561.60;;;;;;5061319;28;20036;-74
2023/09/26 09:58:09;;;;;;;11.15;4.55;;;;;;;;;;5076329;28;20021;-74
2023/09/26 10:00:40;;;;;;;14.65;4.13;;;;;;;;;;5065878;28;20021;-74
2023/09/26 10:03:06;;;;;;;14.15;4.40;;;819.90;1459.20;;;;;;5090633;28;20017;-73
2023/09/26 10:05:34;;;;;;;9.63;4.07;;;819.80;1408.00;;;;;;5070808;28;20089;-74
2023/09/26 10:08:02;;;;;;;14.50;4.60;;;819.70;1356.80;;;;;;5071285;28;20052;-74
2023/09/26 10:10:30;;;;;;;14.95;5.05;;;819.80;1356.80;;;;;;5075521;28;20098;-74
2023/09/26 10:12:55;;;;;;;10.50;4.25;;;819.80;1408.00;;;;;;5081868;28;20545;-74
2023/09/26 10:15:22;;;;;;;14.38;5.20;;;820.00;1433.60;;;;;;5074184;28;20132;-73
2023/09/26 10:17:48;;;;;;;13.13;4.63;;;820.10;1433.60;;;;;;5078469;28;20024;-74
2023/09/26 10:20:15;;;;;;;13.27;5.15;;;820.10;1408.00;;;;;;5074506;28;20033;-74
2023/09/26 10:22:43;;;;;;;8.38;4.25;;;844.90;1408.00;;;;;;5073315;28;20028;-75
2023/09/26 10:25:29;;;;;;;8.93;4.43;;;844.90;1356.80;;;;;;5076316;28;20040;-73
2023/09/26 10:27:55;;;;;;;8.10;4.00;;;844.90;1382.40;;;;;;5079022;28;20047;-74
2023/09/26 10:30:21;;;;;;;8.98;4.30;;;820.10;1356.80;;;;;;5072343;28;20711;-74
2023/09/26 10:32:47;;;;;;;14.50;4.90;;;845.20;1408.00;;;;;;5063959;28;20096;-78
2023/09/26 10:35:15;;;;;;;7.22;4.03;;;845.20;1331.20;;;;;;5076573;28;20385;-74
2023/09/26 10:38:00;;;;;;;12.77;4.88;;;845.30;1280.00;;;;;;5064773;28;20028;-74
2023/09/26 10:40:26;;;;;;;12.05;4.50;;;845.20;1254.40;;;;;;5074378;28;20055;-73
2023/09/26 10:42:52;;;;;;;9.55;3.72;;;845.10;1203.20;;;;;;5077910;28;20027;-74
2023/09/26 10:45:19;;;;;;;12.20;4.60;;;845.20;1280.00;;;;;;5078259;28;20060;-74
2023/09/26 10:47:45;;;;;;;16.00;4.18;;;845.30;1228.80;;;;;;5073913;28;20028;-74
2023/09/26 10:50:12;;;;;;;8.98;3.85;;;845.50;1228.80;;;;;;5076242;28;20056;-73
2023/09/26 10:52:46;;;;;;;9.35;4.00;;;845.60;1254.40;;;;;;5069347;28;20477;-74
2023/09/26 10:55:14;;;;;;;10.95;4.63;;;845.50;1305.60;;;;;;5073831;28;20025;-74
2023/09/26 10:57:41;;;;;;;7.07;3.63;;;845.40;1280.00;;;;;;5077646;28;20067;-73
2023/09/26 11:00:11;;;;;;;7.10;4.28;;;845.20;1203.20;;;;;;5069815;28;20013;-74
2023/09/26 11:02:38;;;;;;;9.68;4.13;;;844.90;1228.80;;;;;;5072856;28;20028;-73
2023/09/26 11:05:08;;;;;;;11.00;4.30;;;820.10;1203.20;;;;;;5072044;28;20023;-74
2023/09/26 11:07:35;;;;;;;7.75;3.88;;;819.70;1254.40;;;;;;5058380;28;20017;-74
2023/09/26 11:10:03;;;;;;;6.55;4.13;;;819.80;1254.40;;;;;;5075029;28;20047;-74
2023/09/26 11:12:30;;;;;;;7.50;4.15;;;819.70;1305.60;;;;;;5057375;28;20028;-77
2023/09/26 11:14:56;;;;;;;9.85;4.50;;;844.90;1331.20;;;;;;5070895;28;20052;-74
2023/09/26 11:17:27;;;;;;;10.90;4.00;;;845.20;1331.20;;;;;;5077752;28;20024;-73
2023/09/26 11:19:56;;;;;;;12.77;4.70;;;845.20;1254.40;;;;;;5060742;28;20421;-72
2023/09/26 11:22:23;;;;;;;12.80;4.20;;;845.50;1331.20;;;;;;5064455;28;20017;-73
2023/09/26 11:24:48;;;;;;;10.77;4.20;;;845.40;1280.00;;;;;;5067705;28;20031;-73
2023/09/26 11:27:14;;;;;;;15.77;4.38;;;844.90;1280.00;;;;;;5068836;28;20037;-72
2023/09/26 11:29:41;;;;;;;7.50;4.03;;;845.20;1280.00;;;;;;5070695;28;20056;-73
2023/09/26 11:32:06;;;;;;;8.10;3.83;;;845.30;1254.40;;;;;;5065111;28;20111;-73
2023/09/26 11:34:35;;;;;;;15.10;4.22;;;845.20;1254.40;;;;;;5073470;28;20123;-74
2023/09/26 11:37:04;;;;;;;11.45;3.85;;;845.20;1280.00;;;;;;5065562;28;20559;-73
2023/09/26 11:39:30;;;;;;;11.55;4.65;;;845.20;1203.20;;;;;;5072467;28;20532;-73
2023/09/26 11:42:08;;;;;;;10.88;4.03;;;845.10;1228.80;;;;;;5071653;28;20036;-73
2023/09/26 11:44:35;;;;;;;8.95;4.55;;;845.20;1228.80;;;;;;5060952;28;20025;-73
2023/09/26 11:47:03;;;;;;;10.57;4.13;;;845.20;1254.40;;;;;;5082856;28;20082;-73
2023/09/26 11:49:30;;;;;;;23.13;4.68;;;845.30;1203.20;;;;;;5072242;28;20056;-72
2023/09/26 11:51:56;;;;;;;11.48;4.55;;;845.20;1177.60;;;;;;5062777;28;20029;-73
2023/09/26 11:54:22;;;;;;;10.48;4.80;;;845.40;1280.00;;;;;;5067526;28;20509;-73
2023/09/26 11:56:48;;;;;;;12.32;3.90;;;845.10;1280.00;;;;;;5069449;28;20021;-73
2023/09/26 11:59:15;;;;;;;10.00;4.65;;;845.10;1254.40;;;;;;5072673;28;20032;-74
2023/09/26 12:01:41;;;;;;;10.23;4.68;;;845.20;1280.00;;;;;;5068319;28;20028;-75
2023/09/26 12:04:11;;;;;;;15.45;4.70;;;845.30;1254.40;;;;;;5073191;28;20100;-73
2023/09/26 12:06:39;;;;;;;9.73;4.68;;;845.50;1280.00;;;;;;5078424;28;20069;-73